Time;durP1;ratioP1;P1;durP2;ratioP2;P2;SDS_P1;SDS_P2;PMS_P1;PMS_P2;Temp;Humidity;BMP_temperature;BMP_pressure;BME280_temperature;BME280_humidity;BME280_pressure;Samples;Min_cycle;Max_cycle;Signal;HPM_P1;HPM_P2
2022/07/22 00:01:30;;;;;;;12.98;2.88;;;14.70;88.20;;;;;;4983842;28;20105;-67
2022/07/22 00:03:57;;;;;;;10.13;3.25;;;14.80;88.50;;;;;;4985789;28;20025;-68
2022/07/22 00:06:24;;;;;;;8.85;4.38;;;14.80;88.70;;;;;;4988750;28;20018;-68
2022/07/22 00:08:50;;;;;;;4.40;2.88;;;14.70;88.60;;;;;;4985353;28;20445;-68
2022/07/22 00:11:17;;;;;;;5.20;3.03;;;14.70;88.60;;;;;;4984101;28;20025;-68
2022/07/22 00:13:45;;;;;;;10.45;4.03;;;14.70;88.50;;;;;;4988646;28;20062;-68
2022/07/22 00:16:11;;;;;;;6.10;2.90;;;14.70;88.50;;;;;;4987316;28;20121;-68
2022/07/22 00:18:38;;;;;;;8.02;3.70;;;14.70;88.60;;;;;;4986938;28;20113;-69
2022/07/22 00:21:05;;;;;;;6.05;3.20;;;14.70;88.60;;;;;;4989623;28;20022;-68
2022/07/22 00:23:31;;;;;;;7.50;3.25;;;14.70;88.70;;;;;;4989470;28;20038;-68
2022/07/22 00:25:58;;;;;;;8.35;3.08;;;14.70;88.70;;;;;;4987292;28;20374;-68
2022/07/22 00:28:25;;;;;;;8.48;2.63;;;14.70;88.60;;;;;;4989179;28;20397;-67
2022/07/22 00:30:51;;;;;;;13.43;3.33;;;14.60;88.60;;;;;;4983650;28;20023;-69
2022/07/22 00:33:18;;;;;;;9.68;3.63;;;14.60;88.50;;;;;;4990062;28;20038;-70
2022/07/22 00:35:44;;;;;;;6.32;2.78;;;14.60;88.30;;;;;;4992743;28;20034;-71
2022/07/22 00:38:11;;;;;;;10.13;3.22;;;14.60;88.20;;;;;;4992756;28;20113;-69
2022/07/22 00:40:37;;;;;;;6.60;3.20;;;14.50;88.00;;;;;;4991047;28;20053;-70
2022/07/22 00:43:03;;;;;;;5.85;3.30;;;14.50;87.80;;;;;;4991103;28;20030;-70
2022/07/22 00:45:30;;;;;;;11.05;4.15;;;14.50;87.70;;;;;;4992796;28;20029;-70
2022/07/22 00:47:56;;;;;;;11.77;3.10;;;14.50;87.50;;;;;;4991818;28;20477;-70
2022/07/22 00:50:23;;;;;;;6.65;2.97;;;14.50;87.40;;;;;;4993043;28;20026;-69
2022/07/22 00:52:50;;;;;;;7.25;3.22;;;14.50;87.10;;;;;;4992129;28;20555;-70
2022/07/22 00:55:17;;;;;;;6.95;3.90;;;14.50;87.00;;;;;;4991757;28;20651;-70
2022/07/22 00:57:44;;;;;;;10.13;4.65;;;14.40;86.70;;;;;;4989483;28;20029;-71
2022/07/22 01:00:16;;;;;;;17.67;4.88;;;14.40;86.60;;;;;;4991689;28;20014;-70
2022/07/22 01:02:42;;;;;;;10.18;5.72;;;14.40;86.40;;;;;;4993313;28;20031;-70
2022/07/22 01:05:09;;;;;;;11.63;5.78;;;14.40;86.30;;;;;;4989187;28;20113;-70
2022/07/22 01:07:38;;;;;;;10.73;5.85;;;14.40;86.20;;;;;;4991414;28;20033;-69
2022/07/22 01:10:06;;;;;;;8.35;5.15;;;14.40;86.00;;;;;;4990961;28;20026;-70
2022/07/22 01:12:33;;;;;;;12.75;5.72;;;14.40;85.60;;;;;;4989633;28;20041;-69
2022/07/22 01:14:59;;;;;;;15.27;6.05;;;14.30;85.40;;;;;;4991868;28;20027;-70
2022/07/22 01:17:26;;;;;;;11.57;5.15;;;14.30;85.20;;;;;;4991013;28;20026;-69
2022/07/22 01:19:52;;;;;;;11.57;5.32;;;14.30;85.00;;;;;;4992350;28;20362;-69
2022/07/22 01:22:19;;;;;;;9.68;5.93;;;14.30;84.90;;;;;;4986692;28;20391;-69
2022/07/22 01:24:45;;;;;;;6.95;4.82;;;14.30;84.90;;;;;;4990239;28;20053;-70
2022/07/22 01:27:12;;;;;;;15.25;5.38;;;14.20;85.00;;;;;;4989420;28;20026;-70
2022/07/22 01:29:38;;;;;;;12.52;5.97;;;14.20;85.40;;;;;;4992682;28;20033;-70
2022/07/22 01:32:05;;;;;;;6.45;5.47;;;14.20;85.50;;;;;;4988529;28;20046;-70
2022/07/22 01:34:32;;;;;;;9.13;5.45;;;14.20;85.50;;;;;;4992924;28;20026;-69
2022/07/22 01:36:58;;;;;;;5.72;4.32;;;14.20;85.40;;;;;;4992128;28;20041;-68
2022/07/22 01:39:25;;;;;;;13.45;4.57;;;14.20;85.50;;;;;;4988639;28;20045;-68
2022/07/22 01:41:51;;;;;;;7.13;4.43;;;14.20;85.50;;;;;;4992160;28;20022;-68
2022/07/22 01:44:18;;;;;;;7.68;4.00;;;14.10;85.30;;;;;;4982995;28;20034;-68
2022/07/22 01:46:44;;;;;;;10.88;4.35;;;14.10;85.90;;;;;;4991545;28;20026;-68
2022/07/22 01:49:11;;;;;;;7.53;3.97;;;14.10;85.30;;;;;;4990968;28;20034;-68
2022/07/22 01:51:37;;;;;;;9.20;4.13;;;14.10;85.70;;;;;;4991455;28;20030;-67
2022/07/22 01:54:04;;;;;;;13.20;5.35;;;14.10;85.50;;;;;;4991974;28;20026;-67
2022/07/22 01:56:30;;;;;;;6.63;4.95;;;14.10;85.40;;;;;;4991315;28;20508;-67
2022/07/22 01:58:57;;;;;;;24.00;5.88;;;14.10;85.50;;;;;;4991632;28;20050;-68
2022/07/22 02:01:24;;;;;;;11.88;6.60;;;14.10;85.50;;;;;;4987786;28;20026;-69
2022/07/22 02:03:51;;;;;;;6.97;5.70;;;14.10;85.60;;;;;;4988658;28;20070;-68
2022/07/22 02:06:17;;;;;;;11.23;7.05;;;14.10;85.50;;;;;;4990773;28;20031;-68
2022/07/22 02:08:44;;;;;;;10.13;6.60;;;14.10;85.40;;;;;;4991128;28;20157;-68
2022/07/22 02:11:10;;;;;;;8.02;5.65;;;14.10;85.30;;;;;;4991076;28;20023;-68
2022/07/22 02:13:37;;;;;;;9.65;6.10;;;14.00;85.10;;;;;;4991306;28;20038;-68
2022/07/22 02:16:03;;;;;;;7.50;5.57;;;14.10;85.10;;;;;;4991687;28;20029;-69
2022/07/22 02:18:30;;;;;;;9.60;5.60;;;14.10;85.00;;;;;;4989788;28;20038;-68
2022/07/22 02:20:56;;;;;;;5.70;4.25;;;14.00;85.00;;;;;;4987517;28;20021;-68
2022/07/22 02:23:23;;;;;;;11.02;4.32;;;14.00;85.00;;;;;;4988925;28;20042;-68
2022/07/22 02:25:49;;;;;;;7.95;4.03;;;14.00;85.50;;;;;;4990461;28;20065;-67
2022/07/22 02:28:16;;;;;;;26.90;3.72;;;14.00;86.00;;;;;;4991162;28;20504;-69
2022/07/22 02:30:42;;;;;;;13.55;4.10;;;14.00;86.40;;;;;;4989140;28;20025;-67
2022/07/22 02:33:09;;;;;;;22.52;9.70;;;14.10;86.80;;;;;;4986749;28;20053;-69
2022/07/22 02:35:36;;;;;;;31.65;18.30;;;14.10;87.00;;;;;;4990412;28;20531;-67
2022/07/22 02:38:03;;;;;;;20.17;14.73;;;14.00;87.00;;;;;;4986919;28;20468;-68
2022/07/22 02:40:29;;;;;;;16.80;9.13;;;14.00;86.70;;;;;;4986469;28;20026;-67
2022/07/22 02:42:56;;;;;;;15.02;6.68;;;14.00;86.20;;;;;;4990805;28;20101;-69
2022/07/22 02:45:23;;;;;;;9.43;4.30;;;14.00;85.90;;;;;;4988315;28;20034;-67
2022/07/22 02:47:51;;;;;;;7.78;4.38;;;14.00;85.70;;;;;;4988587;28;20018;-67
2022/07/22 02:50:18;;;;;;;6.70;3.33;;;14.00;85.40;;;;;;4990619;28;20073;-67
2022/07/22 02:52:44;;;;;;;5.75;2.63;;;14.00;85.40;;;;;;4984132;28;20036;-67
2022/07/22 02:55:11;;;;;;;7.53;3.65;;;14.00;85.30;;;;;;4990113;28;20529;-67
2022/07/22 02:57:38;;;;;;;5.60;3.30;;;14.00;85.20;;;;;;4985342;28;20382;-67
2022/07/22 03:00:08;;;;;;;4.88;3.53;;;13.90;85.10;;;;;;4989142;28;20038;-67
2022/07/22 03:02:35;;;;;;;6.90;3.05;;;13.90;85.10;;;;;;4985021;28;20031;-67
2022/07/22 03:05:04;;;;;;;6.10;3.25;;;13.90;85.10;;;;;;4990437;28;20022;-68
2022/07/22 03:07:30;;;;;;;5.05;4.45;;;13.90;85.00;;;;;;4989954;28;20030;-69
2022/07/22 03:09:57;;;;;;;6.25;3.28;;;13.90;85.00;;;;;;4984858;28;20379;-68
2022/07/22 03:12:24;;;;;;;5.65;2.88;;;13.90;85.00;;;;;;4989980;28;20441;-67
2022/07/22 03:14:51;;;;;;;5.40;3.38;;;13.90;85.00;;;;;;4989491;28;20015;-68
2022/07/22 03:17:17;;;;;;;5.22;3.22;;;13.80;84.80;;;;;;4989906;28;20034;-68
2022/07/22 03:19:44;;;;;;;11.10;3.70;;;13.80;84.80;;;;;;4989158;28;20410;-67
2022/07/22 03:22:11;;;;;;;10.82;4.10;;;13.80;84.70;;;;;;4990233;28;20390;-67
2022/07/22 03:24:38;;;;;;;13.52;6.63;;;13.80;84.70;;;;;;4989588;28;20042;-67
2022/07/22 03:27:07;;;;;;;31.95;13.70;;;13.80;84.50;;;;;;4987867;28;20031;-67
2022/07/22 03:29:34;;;;;;;23.92;12.88;;;13.80;84.30;;;;;;4989018;28;20027;-71
2022/07/22 03:32:00;;;;;;;22.65;10.73;;;13.80;84.00;;;;;;4988699;28;20117;-67
2022/07/22 03:34:27;;;;;;;16.38;9.82;;;13.70;84.00;;;;;;4990039;28;20026;-69
2022/07/22 03:36:53;;;;;;;15.73;10.05;;;13.80;83.90;;;;;;4987184;28;20160;-69
2022/07/22 03:39:20;;;;;;;12.13;7.80;;;13.70;84.10;;;;;;4989563;28;20029;-69
2022/07/22 03:41:46;;;;;;;13.93;8.63;;;13.70;83.20;;;;;;4987953;28;20541;-69
2022/07/22 03:44:12;;;;;;;14.70;8.15;;;13.70;83.00;;;;;;4988829;28;20385;-69
2022/07/22 03:46:39;;;;;;;11.82;8.50;;;13.70;82.90;;;;;;4988012;28;20173;-68
2022/07/22 03:49:05;;;;;;;13.43;7.75;;;13.60;82.60;;;;;;4988623;28;20014;-69
2022/07/22 03:51:32;;;;;;;9.68;6.53;;;13.60;82.50;;;;;;4988650;28;20030;-68
2022/07/22 03:53:58;;;;;;;12.90;7.35;;;13.60;82.50;;;;;;4987576;28;20168;-69
2022/07/22 03:56:25;;;;;;;11.70;6.65;;;13.60;82.20;;;;;;4989144;28;20030;-67
2022/07/22 03:58:51;;;;;;;9.07;7.00;;;13.50;82.10;;;;;;4986703;28;20022;-68
2022/07/22 04:01:18;;;;;;;8.52;5.80;;;13.50;82.00;;;;;;4989047;28;20033;-68
2022/07/22 04:03:44;;;;;;;13.32;6.80;;;13.50;81.80;;;;;;4986430;28;20102;-67
2022/07/22 04:06:11;;;;;;;17.50;6.63;;;13.50;82.00;;;;;;4984930;28;20042;-69
2022/07/22 04:08:37;;;;;;;20.40;14.10;;;13.50;82.60;;;;;;4984100;28;20018;-70
2022/07/22 04:11:04;;;;;;;19.73;14.73;;;13.50;82.70;;;;;;4986385;28;20025;-69
2022/07/22 04:13:30;;;;;;;10.38;7.90;;;13.40;82.60;;;;;;4989828;28;20470;-70
2022/07/22 04:15:57;;;;;;;8.75;4.72;;;13.50;82.50;;;;;;4986154;28;20592;-72
2022/07/22 04:18:23;;;;;;;5.28;3.42;;;13.40;82.30;;;;;;4988571;28;20027;-70
2022/07/22 04:20:50;;;;;;;2.75;2.20;;;13.40;82.30;;;;;;4987771;28;20082;-69
2022/07/22 04:23:17;;;;;;;2.67;1.48;;;13.40;82.30;;;;;;4987071;28;20088;-68
2022/07/22 04:25:44;;;;;;;2.30;1.55;;;13.40;82.20;;;;;;4986699;28;20026;-68
2022/07/22 04:28:10;;;;;;;4.82;1.63;;;13.40;82.10;;;;;;4987636;28;20034;-68
2022/07/22 04:30:36;;;;;;;3.40;2.03;;;13.40;82.10;;;;;;4986885;28;20025;-68
2022/07/22 04:33:03;;;;;;;5.35;1.83;;;13.30;82.00;;;;;;4985507;28;20042;-67
2022/07/22 04:35:30;;;;;;;16.73;2.65;;;13.30;82.10;;;;;;4989367;28;20030;-71
2022/07/22 04:37:56;;;;;;;5.75;2.90;;;13.30;82.20;;;;;;4986812;28;20026;-69
2022/07/22 04:40:23;;;;;;;2.47;2.20;;;13.30;82.20;;;;;;4986992;28;20018;-70
2022/07/22 04:42:49;;;;;;;5.95;2.80;;;13.30;82.20;;;;;;4988387;28;20024;-68
2022/07/22 04:45:16;;;;;;;5.78;3.65;;;13.30;82.30;;;;;;4986626;28;20018;-68
2022/07/22 04:47:43;;;;;;;15.02;3.05;;;13.30;82.20;;;;;;4988953;28;20026;-68
2022/07/22 04:50:09;;;;;;;9.02;2.53;;;13.30;82.20;;;;;;4985450;28;20033;-69
2022/07/22 04:52:36;;;;;;;7.55;2.92;;;13.20;82.20;;;;;;4985016;28;20034;-68
2022/07/22 04:55:02;;;;;;;5.50;2.90;;;13.20;81.90;;;;;;4986305;28;20494;-67
2022/07/22 04:57:29;;;;;;;3.38;2.58;;;13.20;81.90;;;;;;4986429;28;20551;-68
2022/07/22 04:59:55;;;;;;;15.48;3.67;;;13.20;81.80;;;;;;4987093;28;20030;-68
2022/07/22 05:02:22;;;;;;;3.72;2.55;;;13.20;82.00;;;;;;4987880;28;20361;-68
2022/07/22 05:04:49;;;;;;;6.53;2.33;;;13.20;82.00;;;;;;4988310;28;20105;-70
2022/07/22 05:07:15;;;;;;;2.08;1.65;;;13.20;82.00;;;;;;4987926;28;20651;-68
2022/07/22 05:09:42;;;;;;;6.80;1.77;;;13.20;81.80;;;;;;4988733;28;20502;-68
2022/07/22 05:12:08;;;;;;;2.35;1.70;;;13.20;82.60;;;;;;4987727;28;20035;-68
2022/07/22 05:14:35;;;;;;;3.58;1.98;;;13.20;82.00;;;;;;4989090;28;20027;-69
2022/07/22 05:17:02;;;;;;;5.78;2.22;;;13.10;81.80;;;;;;4988388;28;20028;-69
2022/07/22 05:19:28;;;;;;;3.13;1.88;;;13.10;81.70;;;;;;4987052;28;20026;-68
2022/07/22 05:21:55;;;;;;;3.67;1.63;;;13.10;81.70;;;;;;4987718;28;20034;-68
2022/07/22 05:24:21;;;;;;;4.57;1.77;;;13.10;81.70;;;;;;4992567;28;20030;-68
2022/07/22 05:26:48;;;;;;;3.53;2.53;;;13.10;81.70;;;;;;4991936;28;20044;-68
2022/07/22 05:29:14;;;;;;;2.58;1.73;;;13.10;81.80;;;;;;4990434;28;20035;-68
2022/07/22 05:31:41;;;;;;;5.97;2.00;;;13.10;81.90;;;;;;4989259;28;20483;-69
2022/07/22 05:34:07;;;;;;;3.42;1.60;;;13.10;81.90;;;;;;4985588;28;20046;-69
2022/07/22 05:36:34;;;;;;;2.50;1.70;;;13.10;82.10;;;;;;4991536;28;20022;-68
2022/07/22 05:39:00;;;;;;;3.58;2.03;;;13.00;82.00;;;;;;4987142;28;20473;-69
2022/07/22 05:41:27;;;;;;;3.38;2.28;;;13.00;81.90;;;;;;4991270;28;20018;-69
2022/07/22 05:43:53;;;;;;;5.40;3.20;;;13.00;82.00;;;;;;4992233;28;20076;-68
2022/07/22 05:46:19;;;;;;;6.90;3.17;;;13.00;82.10;;;;;;4991195;28;20497;-69
2022/07/22 05:48:46;;;;;;;7.40;3.63;;;13.00;82.00;;;;;;4992256;28;20024;-68
2022/07/22 05:51:13;;;;;;;4.30;2.40;;;13.00;82.00;;;;;;4990759;28;20022;-68
2022/07/22 05:53:41;;;;;;;4.65;2.83;;;13.00;82.10;;;;;;4991288;28;20015;-68
2022/07/22 05:56:10;;;;;;;4.30;2.47;;;13.00;82.20;;;;;;4987193;28;20033;-68
2022/07/22 05:58:38;;;;;;;4.63;3.38;;;13.00;82.30;;;;;;4990087;28;20019;-68
2022/07/22 06:01:05;;;;;;;7.35;3.00;;;13.00;82.40;;;;;;4990291;28;20485;-68
2022/07/22 06:03:32;;;;;;;8.77;3.42;;;13.00;82.90;;;;;;4990980;28;20422;-67
2022/07/22 06:06:01;;;;;;;9.35;3.50;;;13.00;83.40;;;;;;4991780;28;20066;-67
2022/07/22 06:08:28;;;;;;;8.63;3.30;;;13.00;83.80;;;;;;4991218;28;20034;-68
2022/07/22 06:10:54;;;;;;;13.77;2.80;;;13.00;83.50;;;;;;4990646;28;20022;-68
2022/07/22 06:13:21;;;;;;;11.07;3.65;;;13.00;83.40;;;;;;4990105;28;20042;-68
2022/07/22 06:15:47;;;;;;;5.85;3.45;;;13.00;83.40;;;;;;4991710;28;20014;-68
2022/07/22 06:18:14;;;;;;;4.35;3.55;;;13.00;83.30;;;;;;4988252;28;20061;-68
2022/07/22 06:20:40;;;;;;;12.85;5.60;;;13.00;83.30;;;;;;4985953;28;20042;-68
2022/07/22 06:23:07;;;;;;;12.13;4.63;;;12.90;83.10;;;;;;4991555;28;20089;-69
2022/07/22 06:25:33;;;;;;;23.95;4.80;;;12.90;83.30;;;;;;4989680;28;20373;-68
2022/07/22 06:28:00;;;;;;;24.45;4.40;;;13.00;83.90;;;;;;4991525;28;20486;-68
2022/07/22 06:30:26;;;;;;;9.90;3.97;;;13.00;84.20;;;;;;4989195;28;20076;-68
2022/07/22 06:32:53;;;;;;;13.80;4.88;;;13.00;84.60;;;;;;4984169;28;20529;-67
2022/07/22 06:35:20;;;;;;;9.13;4.38;;;13.00;84.90;;;;;;4988198;28;20413;-69
2022/07/22 06:37:46;;;;;;;11.32;5.00;;;13.00;85.30;;;;;;4988715;28;20073;-68
2022/07/22 06:40:13;;;;;;;8.35;4.45;;;13.00;85.30;;;;;;4988851;28;20478;-70
2022/07/22 06:42:40;;;;;;;9.98;4.97;;;13.00;85.50;;;;;;4990392;28;20033;-69
2022/07/22 06:45:06;;;;;;;14.23;5.68;;;13.00;85.50;;;;;;4989710;28;20030;-69
2022/07/22 06:47:35;;;;;;;18.75;5.28;;;13.00;85.70;;;;;;4988606;28;20022;-69
2022/07/22 06:50:06;;;;;;;10.77;5.15;;;13.00;86.00;;;;;;4986551;28;20041;-69
2022/07/22 06:52:33;;;;;;;17.88;5.22;;;13.00;86.10;;;;;;4989688;28;20086;-69
2022/07/22 06:54:59;;;;;;;14.70;5.43;;;13.10;86.20;;;;;;4990006;28;20018;-69
2022/07/22 06:57:26;;;;;;;8.27;5.15;;;13.10;86.30;;;;;;4988714;28;20034;-69
2022/07/22 06:59:52;;;;;;;15.25;6.10;;;13.00;86.40;;;;;;4984277;28;20030;-69
2022/07/22 07:02:19;;;;;;;10.32;5.55;;;13.10;86.60;;;;;;4985542;28;20038;-69
2022/07/22 07:04:45;;;;;;;11.50;5.15;;;13.10;86.70;;;;;;4986832;28;20027;-68
2022/07/22 07:07:11;;;;;;;17.08;5.90;;;13.10;86.80;;;;;;4989428;28;20401;-68
2022/07/22 07:09:38;;;;;;;18.10;6.80;;;13.00;86.80;;;;;;4983653;28;20026;-69
2022/07/22 07:12:04;;;;;;;13.90;7.00;;;13.10;87.10;;;;;;4987960;28;20088;-67
2022/07/22 07:14:31;;;;;;;18.30;6.22;;;13.10;87.20;;;;;;4991195;28;20022;-67
2022/07/22 07:16:57;;;;;;;11.90;5.93;;;13.10;87.30;;;;;;4988581;28;20022;-67
2022/07/22 07:19:24;;;;;;;13.45;5.40;;;13.10;87.50;;;;;;4980474;28;20034;-67
2022/07/22 07:21:51;;;;;;;12.73;6.05;;;13.10;87.70;;;;;;4988092;28;20081;-67
2022/07/22 07:24:18;;;;;;;11.05;5.13;;;13.20;87.80;;;;;;4989545;28;20382;-68
2022/07/22 07:26:44;;;;;;;5.80;4.32;;;13.20;88.10;;;;;;4988839;28;20049;-67
2022/07/22 07:29:10;;;;;;;10.15;4.90;;;13.30;88.40;;;;;;4988740;28;20023;-68
2022/07/22 07:31:37;;;;;;;9.15;3.78;;;13.30;88.70;;;;;;4986146;28;20054;-69
2022/07/22 07:34:03;;;;;;;5.40;3.50;;;13.30;89.10;;;;;;4988899;28;20035;-68
2022/07/22 07:36:30;;;;;;;8.02;3.38;;;13.40;89.50;;;;;;4990445;28;20022;-67
2022/07/22 07:38:56;;;;;;;17.33;3.90;;;13.50;89.80;;;;;;4985259;28;20014;-68
2022/07/22 07:41:23;;;;;;;7.90;4.00;;;13.50;90.00;;;;;;4990173;28;20028;-68
2022/07/22 07:43:50;;;;;;;7.70;3.72;;;13.60;90.10;;;;;;4985962;28;20025;-70
2022/07/22 07:46:16;;;;;;;10.27;3.28;;;13.60;90.20;;;;;;4986159;28;20019;-68
2022/07/22 07:48:43;;;;;;;8.15;3.05;;;13.70;90.30;;;;;;4988229;28;20025;-68
2022/07/22 07:51:09;;;;;;;8.02;3.85;;;13.70;90.40;;;;;;4982716;28;20037;-69
2022/07/22 07:53:36;;;;;;;6.13;3.40;;;13.80;90.60;;;;;;4989791;28;20041;-68
2022/07/22 07:56:02;;;;;;;4.88;2.90;;;13.80;90.70;;;;;;4987055;28;20014;-68
2022/07/22 07:58:29;;;;;;;7.68;2.97;;;13.80;90.90;;;;;;4989607;28;20023;-68
2022/07/22 08:00:55;;;;;;;14.13;4.10;;;13.90;90.90;;;;;;4984757;28;20029;-68
2022/07/22 08:03:22;;;;;;;12.48;4.05;;;13.90;91.10;;;;;;4989716;28;20026;-68
2022/07/22 08:05:48;;;;;;;10.18;3.65;;;14.00;91.80;;;;;;4988932;28;20026;-69
2022/07/22 08:08:15;;;;;;;16.05;3.97;;;14.10;92.30;;;;;;4986473;28;20055;-68
2022/07/22 08:10:42;;;;;;;14.65;3.50;;;14.10;92.60;;;;;;4986516;28;20164;-68
2022/07/22 08:13:09;;;;;;;8.38;3.53;;;14.10;92.80;;;;;;4988441;28;20085;-69
2022/07/22 08:15:36;;;;;;;18.80;3.95;;;14.20;92.90;;;;;;4988134;28;20519;-68
2022/07/22 08:18:02;;;;;;;15.75;4.22;;;14.20;93.00;;;;;;4982728;28;20027;-68
2022/07/22 08:20:29;;;;;;;17.95;3.95;;;14.30;93.00;;;;;;4986192;28;20066;-68
2022/07/22 08:22:56;;;;;;;14.88;3.95;;;14.30;93.00;;;;;;4985675;28;20031;-68
2022/07/22 08:25:23;;;;;;;12.02;4.00;;;14.30;93.10;;;;;;4988769;28;20026;-71
2022/07/22 08:27:50;;;;;;;6.80;3.58;;;14.30;93.40;;;;;;4986420;28;21004;-69
2022/07/22 08:30:17;;;;;;;8.82;4.07;;;14.40;93.50;;;;;;4988601;28;20508;-68
2022/07/22 08:32:44;;;;;;;9.98;4.03;;;14.40;93.40;;;;;;4987015;28;20035;-71
2022/07/22 08:35:11;;;;;;;11.40;4.00;;;14.50;93.60;;;;;;4986104;28;20023;-69
2022/07/22 08:37:38;;;;;;;15.98;4.07;;;14.50;93.50;;;;;;4988058;28;20046;-70
2022/07/22 08:40:06;;;;;;;11.35;3.85;;;14.60;93.70;;;;;;4985543;28;20080;-68
2022/07/22 08:42:38;;;;;;;9.90;3.33;;;14.70;93.70;;;;;;4987169;28;20626;-70
2022/07/22 08:45:06;;;;;;;10.52;3.72;;;14.70;93.60;;;;;;4988094;28;20022;-69
2022/07/22 08:47:33;;;;;;;7.13;3.83;;;14.70;93.50;;;;;;4988906;28;20030;-69
2022/07/22 08:50:00;;;;;;;8.25;4.18;;;14.80;93.50;;;;;;4989311;28;20014;-69
2022/07/22 08:52:26;;;;;;;5.85;4.18;;;14.80;93.50;;;;;;4988912;28;20164;-71
2022/07/22 08:54:53;;;;;;;9.88;3.97;;;14.80;93.50;;;;;;4990981;28;20033;-70
2022/07/22 08:57:19;;;;;;;6.65;3.13;;;14.80;93.30;;;;;;4991972;28;20113;-71
2022/07/22 08:59:51;;;;;;;8.52;3.58;;;14.80;93.20;;;;;;4993093;28;20130;-71
2022/07/22 09:02:18;;;;;;;5.53;3.20;;;14.80;93.10;;;;;;4996038;28;20135;-71
2022/07/22 09:05:03;;;;;;;4.60;3.30;;;14.80;93.00;;;;;;4993317;28;20038;-69
2022/07/22 09:07:32;;;;;;;8.35;2.75;;;14.80;92.90;;;;;;4993515;28;20067;-68
2022/07/22 09:10:00;;;;;;;15.48;3.78;;;14.90;92.80;;;;;;4988011;28;20023;-69
2022/07/22 09:12:32;;;;;;;6.30;3.25;;;14.90;92.80;;;;;;4989823;28;20502;-69
2022/07/22 09:15:00;;;;;;;9.77;3.15;;;14.90;92.60;;;;;;4986265;28;20025;-69
2022/07/22 09:17:35;;;;;;;11.68;3.92;;;14.90;92.60;;;;;;4990754;28;20030;-69
2022/07/22 09:20:14;;;;;;;8.32;2.88;;;15.00;92.60;;;;;;4992265;28;20037;-69
2022/07/22 09:22:43;;;;;;;5.95;3.15;;;15.00;92.50;;;;;;4987485;28;20066;-70
2022/07/22 09:25:28;;;;;;;7.63;3.85;;;15.00;92.40;;;;;;4993119;28;20022;-71
2022/07/22 09:28:05;;;;;;;9.90;3.00;;;15.00;92.30;;;;;;4989225;28;20014;-69
2022/07/22 09:30:33;;;;;;;5.53;2.60;;;15.00;92.30;;;;;;4992810;28;20373;-69
2022/07/22 09:33:00;;;;;;;6.38;3.08;;;15.10;92.40;;;;;;4986458;28;20037;-70
2022/07/22 09:35:27;;;;;;;8.32;3.08;;;15.10;92.40;;;;;;4992312;28;20053;-68
2022/07/22 09:38:06;;;;;;;5.03;2.15;;;15.20;92.30;;;;;;4989390;28;20378;-69
2022/07/22 09:40:36;;;;;;;5.60;1.98;;;15.20;92.20;;;;;;4986828;28;20482;-69
2022/07/22 09:43:13;;;;;;;8.68;1.90;;;15.30;92.00;;;;;;4992447;28;20023;-69
2022/07/22 09:45:58;;;;;;;2.47;1.15;;;15.30;91.70;;;;;;4988249;28;20033;-70
2022/07/22 09:48:25;;;;;;;2.15;1.45;;;15.40;91.60;;;;;;4986937;28;20082;-70
2022/07/22 09:50:53;;;;;;;7.10;0.90;;;15.40;91.40;;;;;;4984034;28;20113;-70
2022/07/22 09:53:22;;;;;;;5.75;0.90;;;15.40;91.30;;;;;;4990588;28;20510;-69
2022/07/22 09:55:50;;;;;;;13.73;1.13;;;15.50;91.30;;;;;;4992515;28;20029;-71
2022/07/22 09:58:17;;;;;;;3.97;1.20;;;15.50;91.20;;;;;;4991899;28;20501;-70
2022/07/22 10:00:44;;;;;;;4.40;0.63;;;15.50;91.10;;;;;;4989763;28;20021;-71
2022/07/22 10:03:21;;;;;;;2.53;1.45;;;15.50;90.90;;;;;;4990662;28;20045;-70
2022/07/22 10:05:48;;;;;;;1.13;0.52;;;15.60;90.70;;;;;;4991021;28;20029;-70
2022/07/22 10:08:15;;;;;;;1.83;0.85;;;15.60;90.50;;;;;;4992117;28;20101;-68
2022/07/22 10:10:41;;;;;;;1.60;0.60;;;15.60;90.40;;;;;;4991151;28;20027;-68
2022/07/22 10:13:09;;;;;;;0.70;0.60;;;15.70;90.30;;;;;;4991177;28;20126;-68
2022/07/22 10:15:36;;;;;;;4.88;0.68;;;15.70;90.20;;;;;;4988706;28;20540;-69
2022/07/22 10:18:08;;;;;;;5.43;1.25;;;15.80;90.10;;;;;;4989200;28;20085;-70
2022/07/22 10:20:36;;;;;;;4.57;0.90;;;15.80;90.00;;;;;;4990500;28;20056;-68
2022/07/22 10:23:05;;;;;;;2.53;0.50;;;15.80;89.90;;;;;;4986959;28;20046;-69
2022/07/22 10:25:49;;;;;;;1.13;0.30;;;15.90;89.50;;;;;;4991315;28;20059;-68
2022/07/22 10:28:23;;;;;;;1.10;0.45;;;15.90;89.20;;;;;;4989726;28;20413;-69
2022/07/22 10:30:49;;;;;;;3.15;0.50;;;15.90;88.80;;;;;;4986836;28;20081;-68
2022/07/22 10:33:20;;;;;;;3.10;0.70;;;15.90;88.70;;;;;;4989356;28;20073;-68
2022/07/22 10:35:53;;;;;;;1.88;0.80;;;16.00;88.70;;;;;;4986279;28;20517;-68
2022/07/22 10:38:21;;;;;;;0.77;0.30;;;16.00;88.60;;;;;;4990287;28;20073;-69
2022/07/22 10:41:07;;;;;;;3.65;0.93;;;16.00;88.40;;;;;;4988431;28;20448;-68
2022/07/22 10:43:39;;;;;;;0.90;0.38;;;16.10;88.30;;;;;;4990971;28;20073;-69
2022/07/22 10:46:06;;;;;;;3.95;0.60;;;16.10;87.90;;;;;;4986175;28;20030;-68
2022/07/22 10:48:32;;;;;;;0.43;0.28;;;16.10;87.50;;;;;;4988994;28;20045;-68
2022/07/22 10:51:07;;;;;;;1.33;0.45;;;16.10;87.30;;;;;;4984939;28;20026;-69
2022/07/22 10:53:47;;;;;;;0.60;0.35;;;16.20;87.10;;;;;;4988628;28;20563;-69
2022/07/22 10:56:27;;;;;;;0.98;0.65;;;16.20;87.00;;;;;;4989287;28;20482;-69
2022/07/22 10:58:57;;;;;;;1.00;0.30;;;16.30;86.70;;;;;;4989424;28;20026;-71
2022/07/22 11:01:30;;;;;;;4.78;0.50;;;16.30;86.40;;;;;;4988512;28;20477;-69
2022/07/22 11:04:12;;;;;;;1.40;0.52;;;16.20;86.10;;;;;;4987860;28;20029;-69
2022/07/22 11:06:39;;;;;;;0.50;0.30;;;16.30;85.90;;;;;;4984911;28;20065;-68
2022/07/22 11:09:10;;;;;;;0.43;0.30;;;16.30;85.80;;;;;;4982070;28;20113;-69
2022/07/22 11:11:45;;;;;;;0.47;0.40;;;16.30;85.70;;;;;;4987436;28;20496;-68
2022/07/22 11:14:14;;;;;;;1.27;0.40;;;16.20;85.70;;;;;;4990346;28;20032;-68
2022/07/22 11:16:42;;;;;;;0.88;0.40;;;16.20;85.60;;;;;;4989805;28;20047;-69
2022/07/22 11:19:08;;;;;;;0.93;0.57;;;16.30;85.60;;;;;;4988642;28;20013;-69
2022/07/22 11:21:35;;;;;;;1.48;0.30;;;16.30;85.50;;;;;;4991038;28;20096;-70
2022/07/22 11:24:05;;;;;;;0.60;0.50;;;16.30;85.70;;;;;;4989021;28;20105;-69
2022/07/22 11:26:45;;;;;;;2.80;0.40;;;16.30;85.70;;;;;;4989310;28;20023;-68
2022/07/22 11:29:37;;;;;;;0.75;0.40;;;16.30;85.60;;;;;;4989546;28;20478;-71
2022/07/22 11:32:09;;;;;;;0.40;0.30;;;16.30;85.50;;;;;;4984567;28;20031;-68
2022/07/22 11:34:42;;;;;;;1.92;0.52;;;16.30;85.40;;;;;;4988759;28;20027;-69
2022/07/22 11:37:09;;;;;;;1.23;0.65;;;16.40;85.30;;;;;;4987936;28;20032;-69
2022/07/22 11:39:36;;;;;;;0.50;0.50;;;16.40;85.10;;;;;;4986602;28;20027;-69
2022/07/22 11:42:03;;;;;;;1.60;0.40;;;16.40;85.00;;;;;;4987919;28;20029;-70
2022/07/22 11:44:32;;;;;;;0.38;0.38;;;16.40;84.90;;;;;;4990653;28;20470;-70
2022/07/22 11:46:59;;;;;;;2.30;0.38;;;16.40;84.60;;;;;;4987461;28;20397;-69
2022/07/22 11:49:29;;;;;;;2.05;0.50;;;16.50;84.50;;;;;;4985981;28;20026;-70
2022/07/22 11:51:55;;;;;;;0.90;0.50;;;16.50;84.40;;;;;;4987141;28;20027;-69
2022/07/22 11:54:22;;;;;;;1.50;0.45;;;16.50;84.30;;;;;;4989433;28;20117;-69
2022/07/22 11:56:49;;;;;;;5.18;0.80;;;16.50;84.20;;;;;;4989225;28;20045;-70
2022/07/22 11:59:19;;;;;;;2.83;0.75;;;16.50;84.20;;;;;;4984993;28;20446;-69
2022/07/22 12:01:48;;;;;;;0.77;0.68;;;16.50;83.90;;;;;;4988813;28;20042;-68
2022/07/22 12:04:21;;;;;;;3.22;0.32;;;16.50;83.70;;;;;;4981870;28;20367;-70
2022/07/22 12:06:54;;;;;;;1.65;0.60;;;16.60;83.60;;;;;;4990004;28;20632;-71
2022/07/22 12:09:23;;;;;;;0.85;0.40;;;16.60;83.50;;;;;;4989644;28;20032;-69
2022/07/22 12:11:52;;;;;;;2.45;0.52;;;16.60;83.20;;;;;;4988250;28;20506;-67
2022/07/22 12:14:24;;;;;;;2.95;1.13;;;16.60;82.90;;;;;;4989619;28;20021;-67
2022/07/22 12:16:59;;;;;;;0.88;0.50;;;16.60;82.70;;;;;;4984008;28;20030;-68
2022/07/22 12:19:29;;;;;;;;;;;16.60;82.60;;;;;;4988901;28;20486;-67
2022/07/22 12:21:58;;;;;;;1.48;0.47;;;16.60;82.70;;;;;;4986025;28;19910;-68
2022/07/22 12:24:38;;;;;;;3.35;0.90;;;16.70;82.80;;;;;;4988019;28;20513;-68
2022/07/22 12:27:06;;;;;;;2.33;0.38;;;16.70;82.80;;;;;;4986447;28;20518;-69
2022/07/22 12:29:38;;;;;;;1.88;0.45;;;16.70;82.40;;;;;;4986968;28;20022;-68
2022/07/22 12:32:24;;;;;;;3.45;0.40;;;16.70;82.10;;;;;;4990776;28;20042;-70
2022/07/22 12:34:58;;;;;;;1.23;0.40;;;16.70;81.90;;;;;;4993343;28;20030;-68
2022/07/22 12:37:26;;;;;;;1.85;0.40;;;16.70;81.80;;;;;;4992993;28;20050;-69
2022/07/22 12:40:07;;;;;;;3.08;0.50;;;16.70;81.80;;;;;;4990027;28;20018;-68
2022/07/22 12:42:39;;;;;;;1.90;0.40;;;16.70;81.90;;;;;;4991027;28;20030;-67
2022/07/22 12:45:10;;;;;;;2.25;0.30;;;16.70;82.00;;;;;;4989911;28;20076;-70
2022/07/22 12:47:43;;;;;;;9.73;0.90;;;16.70;82.00;;;;;;4992964;28;20015;-68